createdAt,value
2022-11-26T00:01:20.715Z,100.00
2022-11-26T00:04:22.174Z,100.00
2022-11-26T00:07:26.445Z,100.00
2022-11-26T00:10:29.299Z,100.00
2022-11-26T00:13:31.209Z,100.00
2022-11-26T00:16:34.139Z,100.00
2022-11-26T00:19:35.767Z,100.00
2022-11-26T00:22:39.481Z,100.00
2022-11-26T00:25:42.281Z,100.00
2022-11-26T00:28:49.004Z,100.00
2022-11-26T00:31:52.004Z,100.00
2022-11-26T00:34:53.953Z,100.00
2022-11-26T00:37:56.420Z,100.00
2022-11-26T00:40:58.234Z,100.00
2022-11-26T00:44:00.012Z,100.00
2022-11-26T00:47:03.452Z,100.00
2022-11-26T00:50:05.737Z,100.00
2022-11-26T00:53:08.397Z,100.00
2022-11-26T00:56:13.975Z,100.00
2022-11-26T00:59:18.119Z,100.00
2022-11-26T01:02:20.923Z,100.00
2022-11-26T01:05:23.492Z,100.00
2022-11-26T01:08:28.712Z,100.00
2022-11-26T01:11:30.407Z,100.00
2022-11-26T01:14:32.322Z,100.00
2022-11-26T01:17:35.554Z,100.00
2022-11-26T01:20:37.131Z,100.00
2022-11-26T01:23:38.700Z,100.00
2022-11-26T01:26:41.263Z,100.00
2022-11-26T01:29:42.768Z,100.00
2022-11-26T01:32:46.377Z,100.00
2022-11-26T01:35:48.013Z,100.00
2022-11-26T01:38:51.032Z,100.00
2022-11-26T01:41:54.621Z,100.00
2022-11-26T01:44:56.521Z,100.00
2022-11-26T01:47:59.375Z,100.00
2022-11-26T01:51:02.392Z,100.00
2022-11-26T01:54:03.878Z,100.00
2022-11-26T01:57:08.397Z,100.00
2022-11-26T02:00:10.487Z,100.00
2022-11-26T02:03:13.606Z,100.00
2022-11-26T02:06:18.932Z,100.00
2022-11-26T02:09:20.846Z,100.00
2022-11-26T02:12:22.465Z,100.00
2022-11-26T02:15:26.280Z,100.00
2022-11-26T02:18:32.012Z,100.00
2022-11-26T02:21:36.493Z,100.00
2022-11-26T02:24:46.520Z,100.00
2022-11-26T02:28:01.780Z,100.00
2022-11-26T02:31:08.379Z,100.00
2022-11-26T02:34:13.769Z,100.00
2022-11-26T02:37:17.919Z,100.00
2022-11-26T02:40:19.917Z,100.00
2022-11-26T02:43:22.159Z,100.00
2022-11-26T02:46:25.144Z,100.00
2022-11-26T02:49:27.526Z,100.00
2022-11-26T02:52:30.192Z,100.00
2022-11-26T02:55:34.699Z,100.00
2022-11-26T02:58:36.624Z,100.00
2022-11-26T03:01:42.761Z,100.00
2022-11-26T03:04:46.967Z,100.00
2022-11-26T03:07:50.955Z,100.00
2022-11-26T03:10:52.515Z,100.00
2022-11-26T03:13:54.146Z,100.00
2022-11-26T03:16:57.137Z,100.00
2022-11-26T03:19:58.661Z,100.00
2022-11-26T03:23:00.097Z,100.00
2022-11-26T03:26:01.524Z,100.00
2022-11-26T03:29:03.015Z,100.00
2022-11-26T03:32:06.262Z,100.00
2022-11-26T03:35:08.458Z,100.00
2022-11-26T03:38:09.973Z,100.00
2022-11-26T03:41:11.490Z,100.00
2022-11-26T03:44:13.577Z,100.00
2022-11-26T03:47:16.553Z,100.00
2022-11-26T03:50:18.228Z,100.00
2022-11-26T03:53:19.723Z,100.00
2022-11-26T03:56:21.249Z,100.00
2022-11-26T03:59:22.876Z,100.00
2022-11-26T04:02:25.867Z,100.00
2022-11-26T04:05:27.382Z,100.00
2022-11-26T04:08:28.856Z,100.00
2022-11-26T04:11:30.561Z,100.00
2022-11-26T04:14:32.218Z,100.00
2022-11-26T04:17:35.078Z,100.00
2022-11-26T04:20:36.721Z,100.00
2022-11-26T04:23:38.532Z,100.00
2022-11-26T04:26:40.228Z,100.00
2022-11-26T04:29:41.934Z,100.00
2022-11-26T04:32:44.804Z,100.00
2022-11-26T04:35:46.567Z,100.00
2022-11-26T04:38:48.091Z,100.00
2022-11-26T04:41:49.971Z,100.00
2022-11-26T04:44:51.552Z,100.00
2022-11-26T04:47:54.620Z,100.00
2022-11-26T04:50:56.074Z,100.00
2022-11-26T04:54:00.435Z,100.00
2022-11-26T04:57:04.343Z,100.00
2022-11-26T05:00:06.716Z,100.00
2022-11-26T05:03:09.692Z,100.00
2022-11-26T05:06:11.736Z,100.00
2022-11-26T05:09:13.154Z,100.00
2022-11-26T05:12:14.644Z,100.00
2022-11-26T05:15:16.148Z,100.00
2022-11-26T05:18:19.097Z,100.00
2022-11-26T05:21:20.554Z,100.00
2022-11-26T05:24:22.095Z,100.00
2022-11-26T05:27:23.638Z,100.00
2022-11-26T05:30:25.107Z,100.00
2022-11-26T05:33:28.094Z,100.00
2022-11-26T05:36:30.215Z,100.00
2022-11-26T05:39:31.724Z,100.00
2022-11-26T05:42:33.279Z,100.00
2022-11-26T05:45:34.836Z,100.00
2022-11-26T05:48:37.729Z,100.00
2022-11-26T05:51:39.192Z,100.00
2022-11-26T05:54:40.808Z,100.00
2022-11-26T05:57:42.532Z,100.00
2022-11-26T06:00:43.979Z,100.00
2022-11-26T06:03:47.022Z,100.00
2022-11-26T06:06:48.919Z,100.00
2022-11-26T06:09:50.456Z,100.00
2022-11-26T06:12:52.049Z,100.00
2022-11-26T06:15:53.743Z,100.00
2022-11-26T06:18:57.383Z,100.00
2022-11-26T06:21:58.885Z,100.00
2022-11-26T06:25:00.677Z,100.00
2022-11-26T06:28:02.127Z,100.00
2022-11-26T06:31:03.686Z,100.00
2022-11-26T06:34:06.803Z,100.00
2022-11-26T06:37:08.478Z,100.00
2022-11-26T06:40:15.693Z,100.00
2022-11-26T06:43:19.680Z,100.00
2022-11-26T06:46:21.430Z,100.00
2022-11-26T06:49:24.339Z,100.00
2022-11-26T06:52:25.900Z,100.00
2022-11-26T06:55:27.434Z,100.00
2022-11-26T06:58:29.995Z,100.00
2022-11-26T07:01:31.764Z,100.00
2022-11-26T07:04:35.372Z,100.00
2022-11-26T07:07:38.080Z,100.00
2022-11-26T07:10:39.611Z,100.00
2022-11-26T07:13:41.175Z,100.00
2022-11-26T07:16:42.609Z,100.00
2022-11-26T07:19:45.430Z,100.00
2022-11-26T07:22:47.186Z,100.00
2022-11-26T07:25:48.824Z,100.00
2022-11-26T07:28:50.836Z,100.00
2022-11-26T07:31:52.416Z,100.00
2022-11-26T07:34:55.221Z,100.00
2022-11-26T07:37:56.800Z,100.00
2022-11-26T07:41:02.598Z,100.00
2022-11-26T07:44:04.148Z,100.00
2022-11-26T07:47:05.766Z,100.00
2022-11-26T07:50:09.769Z,100.00
2022-11-26T07:53:11.446Z,100.00
2022-11-26T07:56:12.985Z,100.00
2022-11-26T07:59:14.635Z,100.00
2022-11-26T08:02:16.656Z,100.00
2022-11-26T08:05:19.534Z,100.00
2022-11-26T08:08:21.038Z,100.00
2022-11-26T08:11:23.251Z,100.00
2022-11-26T08:14:24.678Z,100.00
2022-11-26T08:17:26.236Z,100.00
2022-11-26T08:20:29.443Z,100.00
2022-11-26T08:23:31.627Z,100.00
2022-11-26T08:26:38.375Z,100.00
2022-11-26T08:29:41.414Z,100.00
2022-11-26T08:32:43.047Z,100.00
2022-11-26T08:36:05.942Z,100.00
2022-11-26T08:39:07.468Z,100.00
2022-11-26T08:42:08.978Z,100.00
2022-11-26T08:45:10.914Z,100.00
2022-11-26T08:48:13.363Z,100.00
2022-11-26T08:51:17.387Z,100.00
2022-11-26T08:54:18.910Z,100.00
2022-11-26T08:57:20.411Z,100.00
2022-11-26T09:00:22.047Z,100.00
2022-11-26T09:03:23.704Z,100.00
2022-11-26T09:06:27.458Z,100.00
2022-11-26T09:09:29.308Z,100.00
2022-11-26T09:12:30.795Z,100.00
2022-11-26T09:15:32.402Z,100.00
2022-11-26T09:18:34.222Z,100.00
2022-11-26T09:21:37.409Z,100.00
2022-11-26T09:24:39.229Z,100.00
2022-11-26T09:27:40.934Z,100.00
2022-11-26T09:30:42.609Z,100.00
2022-11-26T09:33:44.985Z,100.00
2022-11-26T09:36:47.991Z,100.00
2022-11-26T09:39:50.774Z,100.00
2022-11-26T09:42:58.391Z,100.00
2022-11-26T09:46:00.876Z,100.00
2022-11-26T09:49:05.316Z,100.00
2022-11-26T09:52:09.253Z,100.00
2022-11-26T09:55:15.859Z,100.00
2022-11-26T09:58:26.737Z,100.00
2022-11-26T10:01:30.012Z,100.00
2022-11-26T10:04:33.219Z,100.00
2022-11-26T10:07:47.342Z,100.00
2022-11-26T10:10:52.037Z,100.00
2022-11-26T10:14:03.331Z,100.00
2022-11-26T10:17:17.419Z,100.00
2022-11-26T10:20:33.795Z,100.00
2022-11-26T10:23:41.189Z,100.00
2022-11-26T10:26:43.222Z,100.00
2022-11-26T10:29:48.819Z,100.00
2022-11-26T10:32:50.794Z,100.00
2022-11-26T10:35:52.348Z,100.00
2022-11-26T10:38:56.465Z,100.00
2022-11-26T10:42:03.340Z,100.00
2022-11-26T10:45:15.913Z,100.00
2022-11-26T10:48:22.333Z,100.00
2022-11-26T10:51:30.199Z,100.00
2022-11-26T10:54:34.455Z,100.00
2022-11-26T10:57:36.937Z,100.00
2022-11-26T11:00:40.083Z,100.00
2022-11-26T11:07:27.354Z,99.41
2022-11-26T11:10:30.262Z,99.55
2022-11-26T11:13:42.049Z,99.13
2022-11-26T11:16:46.249Z,99.55
2022-11-26T11:19:47.991Z,99.80
2022-11-26T11:22:57.504Z,97.45
2022-11-26T11:26:02.751Z,98.12
2022-11-26T11:29:04.252Z,98.44
2022-11-26T11:32:06.702Z,96.26
2022-11-26T11:35:12.210Z,97.05
2022-11-26T11:38:22.428Z,96.81
2022-11-26T11:41:27.986Z,94.86
2022-11-26T11:44:36.907Z,93.97
2022-11-26T11:47:42.960Z,94.57
2022-11-26T11:50:49.072Z,93.41
2022-11-26T11:53:55.948Z,94.78
2022-11-26T11:57:04.455Z,94.20
2022-11-26T12:00:14.895Z,95.15
2022-11-26T12:03:23.375Z,94.24
2022-11-26T12:06:30.916Z,93.41
2022-11-26T12:09:34.936Z,93.78
2022-11-26T12:12:42.327Z,94.35
2022-11-26T12:15:51.580Z,94.06
2022-11-26T12:18:56.849Z,93.19
2022-11-26T12:22:01.917Z,94.03
2022-11-26T12:25:06.195Z,93.74
2022-11-26T12:28:13.878Z,93.84
2022-11-26T12:31:19.041Z,93.29
2022-11-26T12:34:23.728Z,93.21
2022-11-26T12:37:28.281Z,93.85
2022-11-26T12:40:32.321Z,92.97
2022-11-26T12:43:40.721Z,93.89
2022-11-26T12:46:44.628Z,93.32
2022-11-26T12:50:00.519Z,93.06
2022-11-26T12:53:07.704Z,93.72
2022-11-26T12:56:14.149Z,93.93
2022-11-26T12:59:22.273Z,93.79
2022-11-26T13:02:25.040Z,94.57
2022-11-26T13:05:31.027Z,94.53
2022-11-26T13:08:38.411Z,95.12
2022-11-26T13:11:46.198Z,94.88
2022-11-26T13:14:52.572Z,95.48
2022-11-26T13:17:54.605Z,95.85
2022-11-26T13:21:02.751Z,95.94
2022-11-26T13:24:20.315Z,96.14
2022-11-26T13:27:29.809Z,95.98
2022-11-26T13:30:38.860Z,96.07
2022-11-26T13:33:59.725Z,95.63
2022-11-26T13:37:25.512Z,96.09
2022-11-26T13:40:43.792Z,95.83
2022-11-26T13:44:02.351Z,95.74
2022-11-26T13:47:06.172Z,96.03
2022-11-26T13:50:13.200Z,95.72
2022-11-26T13:53:25.008Z,95.96
2022-11-26T13:56:32.293Z,95.80
2022-11-26T13:59:34.163Z,95.71
2022-11-26T14:02:38.452Z,95.83
2022-11-26T14:06:02.395Z,95.55
2022-11-26T14:09:07.002Z,95.30
2022-11-26T14:12:09.053Z,95.62
2022-11-26T14:15:39.312Z,95.53
2022-11-26T14:19:04.980Z,95.50
2022-11-26T14:22:08.551Z,95.79
2022-11-26T14:25:12.067Z,95.81
2022-11-26T14:28:13.641Z,95.73
2022-11-26T14:31:16.314Z,96.11
2022-11-26T14:34:19.703Z,96.31
2022-11-26T14:37:23.350Z,96.51
2022-11-26T14:40:26.643Z,96.25
2022-11-26T14:43:28.665Z,96.27
2022-11-26T14:46:30.147Z,96.38
2022-11-26T14:49:34.783Z,96.20
2022-11-26T14:52:39.477Z,96.50
2022-11-26T14:55:44.006Z,96.83
2022-11-26T14:58:47.275Z,96.95
2022-11-26T15:01:48.828Z,97.07
2022-11-26T15:04:57.385Z,96.84
2022-11-26T15:08:01.117Z,96.90
2022-11-26T15:11:03.934Z,96.87
2022-11-26T15:14:05.483Z,96.71
2022-11-26T15:17:08.873Z,96.85
2022-11-26T15:20:13.025Z,97.10
2022-11-26T15:23:18.905Z,97.04
2022-11-26T15:26:23.103Z,97.26
2022-11-26T15:29:32.298Z,97.31
2022-11-26T15:32:33.937Z,97.58
2022-11-26T15:35:36.485Z,97.50
2022-11-26T15:38:56.116Z,97.72
2022-11-26T15:42:02.559Z,97.56
2022-11-26T15:45:04.225Z,97.75
2022-11-26T15:48:07.457Z,97.75
2022-11-26T15:51:10.753Z,97.88
2022-11-26T15:54:18.233Z,98.10
2022-11-26T15:57:25.651Z,97.66
2022-11-26T16:00:30.582Z,97.69
2022-11-26T16:03:34.827Z,97.87
2022-11-26T16:06:37.743Z,97.74
2022-11-26T16:09:39.654Z,97.75
2022-11-26T16:12:44.905Z,97.71
2022-11-26T16:15:47.791Z,98.28
2022-11-26T16:18:54.068Z,97.77
2022-11-26T16:21:56.549Z,98.12
2022-11-26T16:25:02.626Z,98.40
2022-11-26T16:28:13.961Z,98.43
2022-11-26T16:31:16.122Z,98.69
2022-11-26T16:34:18.202Z,98.59
2022-11-26T16:37:21.748Z,98.76
2022-11-26T16:40:23.886Z,98.71
2022-11-26T16:43:27.279Z,98.38
2022-11-26T16:46:29.005Z,98.68
2022-11-26T16:49:30.502Z,98.99
2022-11-26T16:52:35.519Z,98.71
2022-11-26T16:55:37.024Z,98.44
2022-11-26T16:58:39.947Z,98.69
2022-11-26T17:01:41.435Z,98.62
2022-11-26T17:04:43.431Z,98.66
2022-11-26T17:07:48.116Z,98.73
2022-11-26T17:10:50.978Z,98.92
2022-11-26T17:13:54.676Z,98.95
2022-11-26T17:16:56.743Z,99.44
2022-11-26T17:19:59.122Z,99.01
2022-11-26T17:23:01.082Z,99.03
2022-11-26T17:26:06.172Z,99.22
2022-11-26T17:29:12.831Z,99.55
2022-11-26T17:32:15.007Z,99.50
2022-11-26T17:35:16.860Z,99.68
2022-11-26T17:38:19.521Z,99.39
2022-11-26T17:41:21.160Z,99.86
2022-11-26T17:44:23.971Z,99.99
2022-11-26T17:47:26.289Z,100.00
2022-11-26T17:50:28.864Z,100.00
2022-11-26T17:53:30.578Z,100.00
2022-11-26T17:56:32.171Z,100.00
2022-11-26T17:59:35.103Z,100.00
2022-11-26T18:02:38.891Z,100.00
2022-11-26T18:05:42.294Z,100.00
2022-11-26T18:08:44.322Z,100.00
2022-11-26T18:11:46.810Z,100.00
2022-11-26T18:14:49.896Z,100.00
2022-11-26T18:17:52.246Z,100.00
2022-11-26T18:20:53.855Z,100.00
2022-11-26T18:23:55.283Z,100.00
2022-11-26T18:26:57.041Z,100.00
2022-11-26T18:30:00.378Z,100.00
2022-11-26T18:33:01.963Z,100.00
2022-11-26T18:36:03.817Z,100.00
2022-11-26T18:39:05.584Z,100.00
2022-11-26T18:42:36.466Z,100.00
2022-11-26T18:45:30.184Z,100.00
2022-11-26T18:48:33.368Z,100.00
2022-11-26T18:51:34.844Z,100.00
2022-11-26T18:54:36.496Z,100.00
2022-11-26T18:57:41.135Z,100.00
2022-11-26T19:00:44.195Z,100.00
2022-11-26T19:03:46.142Z,100.00
2022-11-26T19:06:47.687Z,100.00
2022-11-26T19:09:49.257Z,100.00
2022-11-26T19:12:50.733Z,100.00
2022-11-26T19:15:53.581Z,100.00
2022-11-26T19:18:55.050Z,100.00
2022-11-26T19:22:01.155Z,100.00
2022-11-26T19:25:03.507Z,100.00
2022-11-26T19:28:05.451Z,100.00
2022-11-26T19:31:10.292Z,100.00
2022-11-26T19:34:13.682Z,100.00
2022-11-26T19:37:15.206Z,100.00
2022-11-26T19:40:17.144Z,100.00
2022-11-26T19:43:18.831Z,100.00
2022-11-26T19:46:22.703Z,100.00
2022-11-26T19:49:24.214Z,100.00
2022-11-26T19:52:25.619Z,100.00
2022-11-26T19:55:27.527Z,100.00
2022-11-26T19:58:29.880Z,100.00
2022-11-26T20:01:34.099Z,100.00
2022-11-26T20:04:35.782Z,100.00
2022-11-26T20:07:37.513Z,100.00
2022-11-26T20:10:39.718Z,100.00
2022-11-26T20:13:42.238Z,100.00
2022-11-26T20:16:45.638Z,100.00
2022-11-26T20:19:47.506Z,100.00
2022-11-26T20:22:49.866Z,100.00
2022-11-26T20:25:51.342Z,100.00
2022-11-26T20:28:53.666Z,100.00
2022-11-26T20:31:56.548Z,100.00
2022-11-26T20:34:58.450Z,100.00
2022-11-26T20:38:00.025Z,100.00
2022-11-26T20:41:05.881Z,100.00
2022-11-26T20:44:08.518Z,100.00
2022-11-26T20:47:12.551Z,100.00
2022-11-26T20:50:14.775Z,100.00
2022-11-26T20:53:16.332Z,100.00
2022-11-26T20:56:18.391Z,100.00
2022-11-26T20:59:20.189Z,100.00
2022-11-26T21:02:23.216Z,100.00
2022-11-26T21:05:25.684Z,100.00
2022-11-26T21:08:27.318Z,100.00
2022-11-26T21:11:28.930Z,100.00
2022-11-26T21:14:30.566Z,100.00
2022-11-26T21:17:33.482Z,100.00
2022-11-26T21:20:38.832Z,100.00
2022-11-26T21:23:41.095Z,100.00
2022-11-26T21:26:42.548Z,100.00
2022-11-26T21:29:48.760Z,100.00
2022-11-26T21:32:51.811Z,100.00
2022-11-26T21:35:53.912Z,100.00
2022-11-26T21:38:55.685Z,100.00
2022-11-26T21:41:57.156Z,100.00
2022-11-26T21:44:58.819Z,100.00
2022-11-26T21:48:01.703Z,100.00
2022-11-26T21:51:05.831Z,100.00
2022-11-26T21:54:07.254Z,100.00
2022-11-26T21:57:08.775Z,100.00
2022-11-26T22:00:10.710Z,100.00
2022-11-26T22:03:13.795Z,100.00
2022-11-26T22:06:15.578Z,100.00
2022-11-26T22:09:17.327Z,100.00
2022-11-26T22:12:18.947Z,100.00
2022-11-26T22:15:20.820Z,100.00
2022-11-26T22:18:25.987Z,100.00
2022-11-26T22:21:29.310Z,100.00
2022-11-26T22:24:31.015Z,100.00
2022-11-26T22:27:32.676Z,100.00
2022-11-26T22:30:35.783Z,100.00
2022-11-26T22:33:38.909Z,100.00
2022-11-26T22:36:41.316Z,100.00
2022-11-26T22:39:43.143Z,100.00
2022-11-26T22:42:44.740Z,100.00
2022-11-26T22:45:46.607Z,100.00
2022-11-26T22:48:50.943Z,100.00
2022-11-26T22:51:52.477Z,100.00
2022-11-26T22:54:53.952Z,100.00
2022-11-26T22:57:55.530Z,100.00
2022-11-26T23:00:58.553Z,100.00
2022-11-26T23:04:02.349Z,100.00
2022-11-26T23:07:04.320Z,100.00
2022-11-26T23:10:06.311Z,100.00
2022-11-26T23:13:11.126Z,100.00
2022-11-26T23:16:13.101Z,100.00
2022-11-26T23:19:16.308Z,100.00
2022-11-26T23:22:17.787Z,100.00
2022-11-26T23:25:19.342Z,100.00
2022-11-26T23:28:20.839Z,100.00
2022-11-26T23:31:23.584Z,100.00
2022-11-26T23:34:26.485Z,100.00
2022-11-26T23:37:27.927Z,100.00
2022-11-26T23:40:29.463Z,100.00
2022-11-26T23:43:31.450Z,100.00
2022-11-26T23:46:35.287Z,100.00
2022-11-26T23:49:38.664Z,100.00
2022-11-26T23:52:40.260Z,100.00
2022-11-26T23:55:41.751Z,100.00
2022-11-26T23:58:43.246Z,100.00
